sensor_id;sensor_type;location;lat;lon;timestamp;temperature;humidity
23405;DHT22;11875;49.356;2.718;2022-09-03T00:01:02;21.60;99.10
23405;DHT22;11875;49.356;2.718;2022-09-03T00:03:33;21.70;99.10
23405;DHT22;11875;49.356;2.718;2022-09-03T00:06:16;21.70;99.20
23405;DHT22;11875;49.356;2.718;2022-09-03T00:11:32;21.70;99.20
23405;DHT22;11875;49.356;2.718;2022-09-03T00:14:06;21.60;99.00
23405;DHT22;11875;49.356;2.718;2022-09-03T00:16:47;21.60;98.80
23405;DHT22;11875;49.356;2.718;2022-09-03T00:19:20;21.50;98.90
23405;DHT22;11875;49.356;2.718;2022-09-03T00:21:56;21.50;99.20
23405;DHT22;11875;49.356;2.718;2022-09-03T00:24:27;21.50;98.90
23405;DHT22;11875;49.356;2.718;2022-09-03T00:26:58;21.50;99.00
23405;DHT22;11875;49.356;2.718;2022-09-03T00:29:38;21.40;99.00
23405;DHT22;11875;49.356;2.718;2022-09-03T00:32:09;21.50;99.00
23405;DHT22;11875;49.356;2.718;2022-09-03T00:34:40;21.50;98.80
23405;DHT22;11875;49.356;2.718;2022-09-03T00:37:08;21.50;98.70
23405;DHT22;11875;49.356;2.718;2022-09-03T00:39:35;21.50;98.70
23405;DHT22;11875;49.356;2.718;2022-09-03T00:45:33;21.40;99.10
23405;DHT22;11875;49.356;2.718;2022-09-03T00:53:32;21.40;99.60
23405;DHT22;11875;49.356;2.718;2022-09-03T00:59:25;21.40;99.70
23405;DHT22;11875;49.356;2.718;2022-09-03T01:05:06;21.40;99.60
23405;DHT22;11875;49.356;2.718;2022-09-03T01:13:35;21.40;99.20
23405;DHT22;11875;49.356;2.718;2022-09-03T01:19:03;21.40;99.40
23405;DHT22;11875;49.356;2.718;2022-09-03T01:29:35;21.40;99.40
23405;DHT22;11875;49.356;2.718;2022-09-03T01:32:18;21.40;99.40
23405;DHT22;11875;49.356;2.718;2022-09-03T01:37:37;21.40;99.70
23405;DHT22;11875;49.356;2.718;2022-09-03T01:58:32;21.10;99.90
23405;DHT22;11875;49.356;2.718;2022-09-03T02:01:16;21.10;99.90
23405;DHT22;11875;49.356;2.718;2022-09-03T02:03:44;21.10;99.90
23405;DHT22;11875;49.356;2.718;2022-09-03T02:06:11;21.00;99.90
23405;DHT22;11875;49.356;2.718;2022-09-03T02:08:38;21.00;99.90
23405;DHT22;11875;49.356;2.718;2022-09-03T02:11:06;20.90;99.90
23405;DHT22;11875;49.356;2.718;2022-09-03T02:13:46;20.80;99.90
23405;DHT22;11875;49.356;2.718;2022-09-03T02:16:15;20.70;99.90
23405;DHT22;11875;49.356;2.718;2022-09-03T02:18:57;20.60;99.90
23405;DHT22;11875;49.356;2.718;2022-09-03T02:21:25;20.60;99.90
23405;DHT22;11875;49.356;2.718;2022-09-03T02:23:52;20.50;99.90
23405;DHT22;11875;49.356;2.718;2022-09-03T02:26:21;20.40;99.90
23405;DHT22;11875;49.356;2.718;2022-09-03T02:28:47;20.30;99.90
23405;DHT22;11875;49.356;2.718;2022-09-03T02:31:14;20.30;99.90
23405;DHT22;11875;49.356;2.718;2022-09-03T02:33:42;20.20;99.90
23405;DHT22;11875;49.356;2.718;2022-09-03T02:36:12;20.20;99.90
23405;DHT22;11875;49.356;2.718;2022-09-03T02:38:40;20.00;99.90
23405;DHT22;11875;49.356;2.718;2022-09-03T02:41:06;20.00;99.90
23405;DHT22;11875;49.356;2.718;2022-09-03T02:46:20;19.90;99.90
23405;DHT22;11875;49.356;2.718;2022-09-03T02:48:47;20.00;99.90
23405;DHT22;11875;49.356;2.718;2022-09-03T02:51:12;20.10;99.90
23405;DHT22;11875;49.356;2.718;2022-09-03T02:53:38;20.30;99.90
23405;DHT22;11875;49.356;2.718;2022-09-03T02:56:04;20.30;99.90
23405;DHT22;11875;49.356;2.718;2022-09-03T02:58:30;20.40;99.90
23405;DHT22;11875;49.356;2.718;2022-09-03T03:00:57;20.50;99.90
23405;DHT22;11875;49.356;2.718;2022-09-03T03:03:23;20.50;99.90
23405;DHT22;11875;49.356;2.718;2022-09-03T03:05:51;20.50;99.90
23405;DHT22;11875;49.356;2.718;2022-09-03T03:08:18;20.50;99.90
23405;DHT22;11875;49.356;2.718;2022-09-03T03:10:46;20.40;99.90
23405;DHT22;11875;49.356;2.718;2022-09-03T03:13:13;20.40;99.90
23405;DHT22;11875;49.356;2.718;2022-09-03T03:15:39;20.30;99.90
23405;DHT22;11875;49.356;2.718;2022-09-03T03:18:05;20.30;99.90
23405;DHT22;11875;49.356;2.718;2022-09-03T03:20:32;20.30;99.90
23405;DHT22;11875;49.356;2.718;2022-09-03T03:23:00;20.20;99.90
23405;DHT22;11875;49.356;2.718;2022-09-03T03:25:26;20.10;99.90
23405;DHT22;11875;49.356;2.718;2022-09-03T03:27:54;20.10;99.90
23405;DHT22;11875;49.356;2.718;2022-09-03T03:30:21;20.10;99.90
23405;DHT22;11875;49.356;2.718;2022-09-03T03:32:47;20.00;99.90
23405;DHT22;11875;49.356;2.718;2022-09-03T03:35:13;20.00;99.90
23405;DHT22;11875;49.356;2.718;2022-09-03T03:37:39;19.90;99.90
23405;DHT22;11875;49.356;2.718;2022-09-03T03:40:05;19.90;99.90
23405;DHT22;11875;49.356;2.718;2022-09-03T03:42:33;19.90;99.90
23405;DHT22;11875;49.356;2.718;2022-09-03T03:44:59;20.00;99.90
23405;DHT22;11875;49.356;2.718;2022-09-03T03:47:29;20.10;99.90
23405;DHT22;11875;49.356;2.718;2022-09-03T03:49:56;20.10;99.90
23405;DHT22;11875;49.356;2.718;2022-09-03T03:52:23;20.10;99.90
23405;DHT22;11875;49.356;2.718;2022-09-03T03:54:49;20.10;99.90
23405;DHT22;11875;49.356;2.718;2022-09-03T03:57:15;20.20;99.90
23405;DHT22;11875;49.356;2.718;2022-09-03T03:59:40;20.30;99.90
23405;DHT22;11875;49.356;2.718;2022-09-03T04:02:06;20.40;99.90
23405;DHT22;11875;49.356;2.718;2022-09-03T04:04:32;20.40;99.90
23405;DHT22;11875;49.356;2.718;2022-09-03T04:06:57;20.50;99.90
23405;DHT22;11875;49.356;2.718;2022-09-03T04:09:23;20.60;99.90
23405;DHT22;11875;49.356;2.718;2022-09-03T04:11:48;20.70;99.90
23405;DHT22;11875;49.356;2.718;2022-09-03T04:14:15;20.70;99.90
23405;DHT22;11875;49.356;2.718;2022-09-03T04:16:42;20.70;99.90
23405;DHT22;11875;49.356;2.718;2022-09-03T04:19:11;20.70;99.90
23405;DHT22;11875;49.356;2.718;2022-09-03T04:21:37;20.70;99.90
23405;DHT22;11875;49.356;2.718;2022-09-03T04:24:04;20.60;99.90
23405;DHT22;11875;49.356;2.718;2022-09-03T04:26:31;20.50;99.90
23405;DHT22;11875;49.356;2.718;2022-09-03T04:28:58;20.50;99.90
23405;DHT22;11875;49.356;2.718;2022-09-03T04:31:25;20.60;99.90
23405;DHT22;11875;49.356;2.718;2022-09-03T04:33:51;20.60;99.90
23405;DHT22;11875;49.356;2.718;2022-09-03T04:36:19;20.60;99.90
23405;DHT22;11875;49.356;2.718;2022-09-03T04:38:46;20.60;99.90
23405;DHT22;11875;49.356;2.718;2022-09-03T04:41:18;20.60;99.90
23405;DHT22;11875;49.356;2.718;2022-09-03T04:43:45;20.60;99.90
23405;DHT22;11875;49.356;2.718;2022-09-03T04:46:12;20.50;99.90
23405;DHT22;11875;49.356;2.718;2022-09-03T04:48:38;20.30;99.90
23405;DHT22;11875;49.356;2.718;2022-09-03T04:51:13;20.20;99.90
23405;DHT22;11875;49.356;2.718;2022-09-03T04:53:44;20.20;99.90
23405;DHT22;11875;49.356;2.718;2022-09-03T04:56:16;20.20;99.90
23405;DHT22;11875;49.356;2.718;2022-09-03T04:58:43;20.20;99.90
23405;DHT22;11875;49.356;2.718;2022-09-03T05:01:20;20.20;99.90
23405;DHT22;11875;49.356;2.718;2022-09-03T05:03:47;20.10;99.90
23405;DHT22;11875;49.356;2.718;2022-09-03T05:06:13;20.00;99.90
23405;DHT22;11875;49.356;2.718;2022-09-03T05:08:41;20.10;99.90
23405;DHT22;11875;49.356;2.718;2022-09-03T05:11:08;20.10;99.90
23405;DHT22;11875;49.356;2.718;2022-09-03T05:13:34;20.20;99.90
23405;DHT22;11875;49.356;2.718;2022-09-03T05:16:06;20.20;99.90
23405;DHT22;11875;49.356;2.718;2022-09-03T05:18:32;20.20;99.90
23405;DHT22;11875;49.356;2.718;2022-09-03T05:21:05;20.30;99.90
23405;DHT22;11875;49.356;2.718;2022-09-03T05:23:35;20.40;99.90
23405;DHT22;11875;49.356;2.718;2022-09-03T05:26:03;20.40;99.90
23405;DHT22;11875;49.356;2.718;2022-09-03T05:28:34;20.40;99.90
23405;DHT22;11875;49.356;2.718;2022-09-03T05:33:36;20.60;99.90
23405;DHT22;11875;49.356;2.718;2022-09-03T05:36:07;20.70;99.90
23405;DHT22;11875;49.356;2.718;2022-09-03T05:38:33;20.60;99.90
23405;DHT22;11875;49.356;2.718;2022-09-03T05:41:04;20.60;99.90
23405;DHT22;11875;49.356;2.718;2022-09-03T05:43:31;20.50;99.90
23405;DHT22;11875;49.356;2.718;2022-09-03T05:45:58;20.50;99.90
23405;DHT22;11875;49.356;2.718;2022-09-03T05:48:25;20.50;99.90
23405;DHT22;11875;49.356;2.718;2022-09-03T05:51:05;20.40;99.90
23405;DHT22;11875;49.356;2.718;2022-09-03T05:53:36;20.50;99.90
23405;DHT22;11875;49.356;2.718;2022-09-03T05:56:08;20.40;99.90
23405;DHT22;11875;49.356;2.718;2022-09-03T05:58:41;20.40;99.90
23405;DHT22;11875;49.356;2.718;2022-09-03T06:01:21;20.40;99.90
23405;DHT22;11875;49.356;2.718;2022-09-03T06:03:53;20.40;99.90
23405;DHT22;11875;49.356;2.718;2022-09-03T06:06:20;20.30;99.90
23405;DHT22;11875;49.356;2.718;2022-09-03T06:08:50;20.30;99.90
23405;DHT22;11875;49.356;2.718;2022-09-03T06:11:16;20.30;99.90
23405;DHT22;11875;49.356;2.718;2022-09-03T06:13:42;20.30;99.90
23405;DHT22;11875;49.356;2.718;2022-09-03T06:16:08;20.20;99.90
23405;DHT22;11875;49.356;2.718;2022-09-03T06:18:33;20.20;99.90
23405;DHT22;11875;49.356;2.718;2022-09-03T06:21:01;20.30;99.90
23405;DHT22;11875;49.356;2.718;2022-09-03T06:23:28;20.20;99.90
23405;DHT22;11875;49.356;2.718;2022-09-03T06:26:11;20.10;99.90
23405;DHT22;11875;49.356;2.718;2022-09-03T06:28:41;20.10;99.90
23405;DHT22;11875;49.356;2.718;2022-09-03T06:31:16;20.10;99.90
23405;DHT22;11875;49.356;2.718;2022-09-03T06:33:43;20.20;99.90
23405;DHT22;11875;49.356;2.718;2022-09-03T06:36:13;20.20;99.90
23405;DHT22;11875;49.356;2.718;2022-09-03T06:38:39;20.20;99.90
23405;DHT22;11875;49.356;2.718;2022-09-03T06:41:14;20.00;99.90
23405;DHT22;11875;49.356;2.718;2022-09-03T06:43:41;20.00;99.90
23405;DHT22;11875;49.356;2.718;2022-09-03T06:46:15;20.00;99.90
23405;DHT22;11875;49.356;2.718;2022-09-03T06:48:42;20.20;99.90
23405;DHT22;11875;49.356;2.718;2022-09-03T06:51:19;20.20;99.90
23405;DHT22;11875;49.356;2.718;2022-09-03T06:53:48;20.30;99.90
23405;DHT22;11875;49.356;2.718;2022-09-03T06:56:16;20.40;99.90
23405;DHT22;11875;49.356;2.718;2022-09-03T06:58:45;20.40;99.90
23405;DHT22;11875;49.356;2.718;2022-09-03T07:01:12;20.40;99.90
23405;DHT22;11875;49.356;2.718;2022-09-03T07:03:39;20.30;99.90
23405;DHT22;11875;49.356;2.718;2022-09-03T07:06:13;20.30;99.90
23405;DHT22;11875;49.356;2.718;2022-09-03T07:08:40;20.30;99.90
23405;DHT22;11875;49.356;2.718;2022-09-03T07:11:11;20.30;99.90
23405;DHT22;11875;49.356;2.718;2022-09-03T07:13:39;20.40;99.90
23405;DHT22;11875;49.356;2.718;2022-09-03T07:16:07;20.50;99.90
23405;DHT22;11875;49.356;2.718;2022-09-03T07:18:34;20.60;99.90
23405;DHT22;11875;49.356;2.718;2022-09-03T07:21:01;20.80;99.90
23405;DHT22;11875;49.356;2.718;2022-09-03T07:23:28;20.80;99.90
23405;DHT22;11875;49.356;2.718;2022-09-03T07:25:59;20.70;99.90
23405;DHT22;11875;49.356;2.718;2022-09-03T07:28:26;20.80;99.90
23405;DHT22;11875;49.356;2.718;2022-09-03T07:30:53;20.80;99.90
23405;DHT22;11875;49.356;2.718;2022-09-03T07:33:19;20.90;99.90
23405;DHT22;11875;49.356;2.718;2022-09-03T07:35:45;21.00;99.90
23405;DHT22;11875;49.356;2.718;2022-09-03T07:38:16;21.00;99.90
23405;DHT22;11875;49.356;2.718;2022-09-03T07:40:41;21.10;99.90
23405;DHT22;11875;49.356;2.718;2022-09-03T07:43:08;21.10;99.90
23405;DHT22;11875;49.356;2.718;2022-09-03T07:45:34;21.20;99.90
23405;DHT22;11875;49.356;2.718;2022-09-03T07:48:00;21.30;99.90
23405;DHT22;11875;49.356;2.718;2022-09-03T07:50:25;21.40;99.90
23405;DHT22;11875;49.356;2.718;2022-09-03T07:52:57;21.40;99.90
23405;DHT22;11875;49.356;2.718;2022-09-03T07:55:23;21.40;99.90
23405;DHT22;11875;49.356;2.718;2022-09-03T07:57:49;21.50;99.90
23405;DHT22;11875;49.356;2.718;2022-09-03T08:00:14;21.80;99.90
23405;DHT22;11875;49.356;2.718;2022-09-03T08:02:42;21.80;99.90
23405;DHT22;11875;49.356;2.718;2022-09-03T08:05:07;21.70;99.90
23405;DHT22;11875;49.356;2.718;2022-09-03T08:07:33;21.70;99.90
23405;DHT22;11875;49.356;2.718;2022-09-03T08:09:59;21.70;99.90
23405;DHT22;11875;49.356;2.718;2022-09-03T08:12:25;21.70;99.90
23405;DHT22;11875;49.356;2.718;2022-09-03T08:14:51;21.70;99.90
23405;DHT22;11875;49.356;2.718;2022-09-03T08:17:17;21.80;99.90
23405;DHT22;11875;49.356;2.718;2022-09-03T08:19:42;21.70;99.90
23405;DHT22;11875;49.356;2.718;2022-09-03T08:22:10;21.70;99.90
23405;DHT22;11875;49.356;2.718;2022-09-03T08:24:36;21.80;99.90
23405;DHT22;11875;49.356;2.718;2022-09-03T08:27:01;21.80;99.90
23405;DHT22;11875;49.356;2.718;2022-09-03T08:29:28;21.90;99.90
23405;DHT22;11875;49.356;2.718;2022-09-03T08:31:53;21.90;99.90
23405;DHT22;11875;49.356;2.718;2022-09-03T08:34:19;21.90;99.90
23405;DHT22;11875;49.356;2.718;2022-09-03T08:36:45;21.90;99.90
23405;DHT22;11875;49.356;2.718;2022-09-03T08:39:12;22.00;99.90
23405;DHT22;11875;49.356;2.718;2022-09-03T08:44:43;22.20;99.90
23405;DHT22;11875;49.356;2.718;2022-09-03T08:52:45;22.50;99.90
23405;DHT22;11875;49.356;2.718;2022-09-03T08:55:37;22.70;99.90
23405;DHT22;11875;49.356;2.718;2022-09-03T08:58:17;22.70;99.90
23405;DHT22;11875;49.356;2.718;2022-09-03T09:01:38;22.90;99.90
23405;DHT22;11875;49.356;2.718;2022-09-03T09:06:42;23.10;99.90
23405;DHT22;11875;49.356;2.718;2022-09-03T09:09:13;23.20;99.90
23405;DHT22;11875;49.356;2.718;2022-09-03T09:20:20;23.40;99.90
23405;DHT22;11875;49.356;2.718;2022-09-03T09:23:03;23.40;99.90
23405;DHT22;11875;49.356;2.718;2022-09-03T09:25:31;23.50;99.90
23405;DHT22;11875;49.356;2.718;2022-09-03T09:30:41;23.60;99.90
23405;DHT22;11875;49.356;2.718;2022-09-03T09:33:07;23.70;99.90
23405;DHT22;11875;49.356;2.718;2022-09-03T09:35:32;23.80;99.90
23405;DHT22;11875;49.356;2.718;2022-09-03T09:37:58;24.00;99.90
23405;DHT22;11875;49.356;2.718;2022-09-03T09:40:33;24.10;99.90
23405;DHT22;11875;49.356;2.718;2022-09-03T09:43:13;24.20;99.90
23405;DHT22;11875;49.356;2.718;2022-09-03T09:45:49;24.40;99.90
23405;DHT22;11875;49.356;2.718;2022-09-03T09:51:05;24.60;99.90
23405;DHT22;11875;49.356;2.718;2022-09-03T09:53:31;24.70;99.90
23405;DHT22;11875;49.356;2.718;2022-09-03T09:55:57;24.90;99.90
23405;DHT22;11875;49.356;2.718;2022-09-03T09:58:25;25.00;99.90
23405;DHT22;11875;49.356;2.718;2022-09-03T10:00:56;25.10;99.90
23405;DHT22;11875;49.356;2.718;2022-09-03T10:03:23;25.30;99.90
23405;DHT22;11875;49.356;2.718;2022-09-03T10:06:06;25.40;99.90
23405;DHT22;11875;49.356;2.718;2022-09-03T10:09:03;25.30;99.90
23405;DHT22;11875;49.356;2.718;2022-09-03T10:11:30;25.30;99.90
23405;DHT22;11875;49.356;2.718;2022-09-03T10:13:57;25.20;99.90
23405;DHT22;11875;49.356;2.718;2022-09-03T10:16:32;25.30;99.90
23405;DHT22;11875;49.356;2.718;2022-09-03T10:19:19;25.30;99.90
23405;DHT22;11875;49.356;2.718;2022-09-03T10:22:00;25.50;99.50
23405;DHT22;11875;49.356;2.718;2022-09-03T10:24:51;25.50;99.60
23405;DHT22;11875;49.356;2.718;2022-09-03T10:27:20;25.40;99.50
23405;DHT22;11875;49.356;2.718;2022-09-03T10:29:47;25.40;99.30
23405;DHT22;11875;49.356;2.718;2022-09-03T10:38:24;25.20;99.50
23405;DHT22;11875;49.356;2.718;2022-09-03T10:46:56;25.40;99.50
23405;DHT22;11875;49.356;2.718;2022-09-03T10:49:46;25.30;99.30
23405;DHT22;11875;49.356;2.718;2022-09-03T10:52:37;25.20;99.30
23405;DHT22;11875;49.356;2.718;2022-09-03T10:58:09;25.10;99.30
23405;DHT22;11875;49.356;2.718;2022-09-03T11:00:45;24.90;99.40
23405;DHT22;11875;49.356;2.718;2022-09-03T11:03:30;24.70;99.90
23405;DHT22;11875;49.356;2.718;2022-09-03T11:06:00;24.70;99.90
23405;DHT22;11875;49.356;2.718;2022-09-03T11:11:06;24.60;99.90
23405;DHT22;11875;49.356;2.718;2022-09-03T11:13:47;24.70;99.90
23405;DHT22;11875;49.356;2.718;2022-09-03T11:16:29;24.80;99.90
23405;DHT22;11875;49.356;2.718;2022-09-03T11:19:08;24.80;99.90
23405;DHT22;11875;49.356;2.718;2022-09-03T11:21:37;24.80;99.90
23405;DHT22;11875;49.356;2.718;2022-09-03T11:26:36;24.70;99.90
23405;DHT22;11875;49.356;2.718;2022-09-03T11:29:10;24.80;99.90
23405;DHT22;11875;49.356;2.718;2022-09-03T11:32:00;25.00;99.90
23405;DHT22;11875;49.356;2.718;2022-09-03T11:40:12;25.60;99.20
23405;DHT22;11875;49.356;2.718;2022-09-03T11:42:42;25.60;99.90
23405;DHT22;11875;49.356;2.718;2022-09-03T11:45:21;25.60;99.90
23405;DHT22;11875;49.356;2.718;2022-09-03T11:47:48;25.50;99.90
23405;DHT22;11875;49.356;2.718;2022-09-03T11:50:30;25.40;99.90
23405;DHT22;11875;49.356;2.718;2022-09-03T11:55:58;25.40;99.90
23405;DHT22;11875;49.356;2.718;2022-09-03T11:58:29;25.10;99.90
23405;DHT22;11875;49.356;2.718;2022-09-03T12:00:57;24.90;99.90
23405;DHT22;11875;49.356;2.718;2022-09-03T12:03:44;24.80;99.90
23405;DHT22;11875;49.356;2.718;2022-09-03T12:15:10;24.80;99.90
23405;DHT22;11875;49.356;2.718;2022-09-03T12:20:38;24.80;99.90
23405;DHT22;11875;49.356;2.718;2022-09-03T12:23:04;25.00;99.90
23405;DHT22;11875;49.356;2.718;2022-09-03T12:25:30;25.10;99.90
23405;DHT22;11875;49.356;2.718;2022-09-03T12:28:00;25.20;99.90
23405;DHT22;11875;49.356;2.718;2022-09-03T12:30:28;25.20;99.90
23405;DHT22;11875;49.356;2.718;2022-09-03T12:33:04;25.10;99.60
23405;DHT22;11875;49.356;2.718;2022-09-03T12:35:29;24.90;99.90
23405;DHT22;11875;49.356;2.718;2022-09-03T12:37:55;24.70;99.90
23405;DHT22;11875;49.356;2.718;2022-09-03T12:40:26;24.50;99.90
23405;DHT22;11875;49.356;2.718;2022-09-03T12:42:53;24.30;99.90
23405;DHT22;11875;49.356;2.718;2022-09-03T12:45:24;24.30;99.90
23405;DHT22;11875;49.356;2.718;2022-09-03T12:47:51;24.20;99.90
23405;DHT22;11875;49.356;2.718;2022-09-03T12:50:21;24.20;99.90
23405;DHT22;11875;49.356;2.718;2022-09-03T12:52:58;24.40;99.90
23405;DHT22;11875;49.356;2.718;2022-09-03T12:55:37;24.40;99.90
23405;DHT22;11875;49.356;2.718;2022-09-03T12:58:23;24.30;99.90
23405;DHT22;11875;49.356;2.718;2022-09-03T13:00:58;24.40;99.90
23405;DHT22;11875;49.356;2.718;2022-09-03T13:03:36;24.40;99.90
23405;DHT22;11875;49.356;2.718;2022-09-03T13:06:10;24.40;99.90
23405;DHT22;11875;49.356;2.718;2022-09-03T13:08:46;24.30;99.90
23405;DHT22;11875;49.356;2.718;2022-09-03T13:11:19;24.40;99.90
23405;DHT22;11875;49.356;2.718;2022-09-03T13:14:03;24.50;99.90
23405;DHT22;11875;49.356;2.718;2022-09-03T13:19:42;25.10;99.90
23405;DHT22;11875;49.356;2.718;2022-09-03T13:27:43;26.00;99.00
23405;DHT22;11875;49.356;2.718;2022-09-03T13:30:14;26.00;98.80
23405;DHT22;11875;49.356;2.718;2022-09-03T13:33:12;26.10;98.30
23405;DHT22;11875;49.356;2.718;2022-09-03T13:41:33;26.40;98.10
23405;DHT22;11875;49.356;2.718;2022-09-03T13:44:08;26.50;97.70
23405;DHT22;11875;49.356;2.718;2022-09-03T13:46:54;26.70;97.20
23405;DHT22;11875;49.356;2.718;2022-09-03T13:55:36;26.90;95.90
23405;DHT22;11875;49.356;2.718;2022-09-03T14:04:27;27.30;95.60
23405;DHT22;11875;49.356;2.718;2022-09-03T14:07:10;27.50;95.30
23405;DHT22;11875;49.356;2.718;2022-09-03T14:10:00;27.40;95.30
23405;DHT22;11875;49.356;2.718;2022-09-03T14:12:39;27.60;95.20
23405;DHT22;11875;49.356;2.718;2022-09-03T14:20:46;27.90;94.80
23405;DHT22;11875;49.356;2.718;2022-09-03T14:25:59;27.90;94.60
23405;DHT22;11875;49.356;2.718;2022-09-03T14:28:37;27.70;94.30
23405;DHT22;11875;49.356;2.718;2022-09-03T14:31:26;27.60;94.00
23405;DHT22;11875;49.356;2.718;2022-09-03T14:37:12;27.50;93.50
23405;DHT22;11875;49.356;2.718;2022-09-03T15:10:58;28.10;91.90
23405;DHT22;11875;49.356;2.718;2022-09-03T15:13:41;28.00;90.90
23405;DHT22;11875;49.356;2.718;2022-09-03T15:16:35;27.90;91.00
23405;DHT22;11875;49.356;2.718;2022-09-03T15:24:55;27.90;91.00
23405;DHT22;11875;49.356;2.718;2022-09-03T15:27:57;27.90;90.90
23405;DHT22;11875;49.356;2.718;2022-09-03T15:33:22;27.90;90.80
23405;DHT22;11875;49.356;2.718;2022-09-03T15:38:38;27.70;91.20
23405;DHT22;11875;49.356;2.718;2022-09-03T15:43:58;27.60;92.80
23405;DHT22;11875;49.356;2.718;2022-09-03T15:57:26;27.50;93.00
23405;DHT22;11875;49.356;2.718;2022-09-03T15:59:54;27.50;93.00
23405;DHT22;11875;49.356;2.718;2022-09-03T16:05:25;27.20;93.20
23405;DHT22;11875;49.356;2.718;2022-09-03T16:11:16;27.20;92.40
23405;DHT22;11875;49.356;2.718;2022-09-03T16:14:19;27.10;92.50
23405;DHT22;11875;49.356;2.718;2022-09-03T16:19:42;27.00;92.20
23405;DHT22;11875;49.356;2.718;2022-09-03T16:22:20;27.00;91.90
23405;DHT22;11875;49.356;2.718;2022-09-03T16:27:51;26.80;92.00
23405;DHT22;11875;49.356;2.718;2022-09-03T16:31:00;26.60;92.10
23405;DHT22;11875;49.356;2.718;2022-09-03T16:36:42;26.60;92.30
23405;DHT22;11875;49.356;2.718;2022-09-03T16:39:24;26.60;92.30
23405;DHT22;11875;49.356;2.718;2022-09-03T16:42:10;26.60;92.10
23405;DHT22;11875;49.356;2.718;2022-09-03T17:05:01;26.30;92.30
23405;DHT22;11875;49.356;2.718;2022-09-03T17:10:27;26.20;92.70
23405;DHT22;11875;49.356;2.718;2022-09-03T17:18:09;26.10;92.50
23405;DHT22;11875;49.356;2.718;2022-09-03T17:21:02;26.10;92.30
23405;DHT22;11875;49.356;2.718;2022-09-03T17:23:46;26.10;92.20
23405;DHT22;11875;49.356;2.718;2022-09-03T17:29:25;25.90;92.40
23405;DHT22;11875;49.356;2.718;2022-09-03T17:47:51;25.80;92.80
23405;DHT22;11875;49.356;2.718;2022-09-03T17:50:24;25.70;92.90
23405;DHT22;11875;49.356;2.718;2022-09-03T17:53:08;25.60;93.00
23405;DHT22;11875;49.356;2.718;2022-09-03T17:55:39;25.70;93.00
23405;DHT22;11875;49.356;2.718;2022-09-03T17:58:18;25.70;93.00
23405;DHT22;11875;49.356;2.718;2022-09-03T18:11:48;25.50;93.20
23405;DHT22;11875;49.356;2.718;2022-09-03T18:14:34;25.50;93.20
23405;DHT22;11875;49.356;2.718;2022-09-03T18:19:53;25.50;93.30
23405;DHT22;11875;49.356;2.718;2022-09-03T18:25:47;25.50;93.40
23405;DHT22;11875;49.356;2.718;2022-09-03T18:29:01;25.50;93.60
23405;DHT22;11875;49.356;2.718;2022-09-03T18:31:46;25.40;93.60
23405;DHT22;11875;49.356;2.718;2022-09-03T18:34:35;25.30;93.70
23405;DHT22;11875;49.356;2.718;2022-09-03T18:37:22;25.20;93.80
23405;DHT22;11875;49.356;2.718;2022-09-03T18:40:09;25.10;93.90
23405;DHT22;11875;49.356;2.718;2022-09-03T18:43:22;25.10;94.20
23405;DHT22;11875;49.356;2.718;2022-09-03T18:46:24;25.10;94.50
23405;DHT22;11875;49.356;2.718;2022-09-03T18:49:41;25.00;94.30
23405;DHT22;11875;49.356;2.718;2022-09-03T18:52:53;24.90;94.40
23405;DHT22;11875;49.356;2.718;2022-09-03T19:01:37;24.60;94.20
23405;DHT22;11875;49.356;2.718;2022-09-03T19:10:55;24.60;94.60
23405;DHT22;11875;49.356;2.718;2022-09-03T19:13:41;24.50;94.70
23405;DHT22;11875;49.356;2.718;2022-09-03T19:16:58;24.40;94.70
23405;DHT22;11875;49.356;2.718;2022-09-03T19:19:55;24.30;94.90
23405;DHT22;11875;49.356;2.718;2022-09-03T19:22:45;24.30;94.90
23405;DHT22;11875;49.356;2.718;2022-09-03T19:25:30;24.20;95.00
23405;DHT22;11875;49.356;2.718;2022-09-03T19:28:20;24.20;95.10
23405;DHT22;11875;49.356;2.718;2022-09-03T19:37:19;24.10;95.10
23405;DHT22;11875;49.356;2.718;2022-09-03T19:46:46;24.00;95.30
23405;DHT22;11875;49.356;2.718;2022-09-03T19:52:54;23.80;95.40
23405;DHT22;11875;49.356;2.718;2022-09-03T19:55:47;23.80;95.50
23405;DHT22;11875;49.356;2.718;2022-09-03T19:58:35;23.80;95.50
23405;DHT22;11875;49.356;2.718;2022-09-03T20:01:25;23.80;95.60
23405;DHT22;11875;49.356;2.718;2022-09-03T20:04:13;23.60;95.60
23405;DHT22;11875;49.356;2.718;2022-09-03T20:07:00;23.50;95.70
23405;DHT22;11875;49.356;2.718;2022-09-03T20:09:46;23.40;96.00
23405;DHT22;11875;49.356;2.718;2022-09-03T20:12:38;23.30;96.10
23405;DHT22;11875;49.356;2.718;2022-09-03T20:15:06;23.30;96.10
23405;DHT22;11875;49.356;2.718;2022-09-03T20:20:27;23.20;96.10
23405;DHT22;11875;49.356;2.718;2022-09-03T20:55:30;22.70;95.90
23405;DHT22;11875;49.356;2.718;2022-09-03T21:00:57;22.60;95.80
23405;DHT22;11875;49.356;2.718;2022-09-03T21:03:48;22.60;95.80
23405;DHT22;11875;49.356;2.718;2022-09-03T21:06:30;22.50;96.00
23405;DHT22;11875;49.356;2.718;2022-09-03T21:09:03;22.40;95.90
23405;DHT22;11875;49.356;2.718;2022-09-03T21:14:27;22.30;95.90
23405;DHT22;11875;49.356;2.718;2022-09-03T21:17:07;22.20;96.00
23405;DHT22;11875;49.356;2.718;2022-09-03T21:22:40;22.30;96.30
23405;DHT22;11875;49.356;2.718;2022-09-03T21:25:38;22.30;96.50
23405;DHT22;11875;49.356;2.718;2022-09-03T21:28:18;22.20;96.70
23405;DHT22;11875;49.356;2.718;2022-09-03T21:30:56;22.10;96.70
23405;DHT22;11875;49.356;2.718;2022-09-03T21:33:26;22.10;96.50
23405;DHT22;11875;49.356;2.718;2022-09-03T21:36:09;22.10;96.10
23405;DHT22;11875;49.356;2.718;2022-09-03T21:38:38;22.00;96.00
23405;DHT22;11875;49.356;2.718;2022-09-03T21:41:11;21.90;95.90
23405;DHT22;11875;49.356;2.718;2022-09-03T21:44:07;21.80;95.90
23405;DHT22;11875;49.356;2.718;2022-09-03T21:46:45;21.80;95.70
23405;DHT22;11875;49.356;2.718;2022-09-03T21:49:19;21.60;96.10
23405;DHT22;11875;49.356;2.718;2022-09-03T21:51:55;21.50;95.90
23405;DHT22;11875;49.356;2.718;2022-09-03T21:54:27;21.50;96.00
23405;DHT22;11875;49.356;2.718;2022-09-03T21:57:12;21.40;95.90
23405;DHT22;11875;49.356;2.718;2022-09-03T22:00:09;21.40;96.20
23405;DHT22;11875;49.356;2.718;2022-09-03T22:02:36;21.40;96.20
23405;DHT22;11875;49.356;2.718;2022-09-03T22:05:03;21.40;96.20
23405;DHT22;11875;49.356;2.718;2022-09-03T22:10:11;21.30;96.10
23405;DHT22;11875;49.356;2.718;2022-09-03T22:12:54;21.30;96.30
23405;DHT22;11875;49.356;2.718;2022-09-03T22:15:22;21.20;96.50
23405;DHT22;11875;49.356;2.718;2022-09-03T22:17:59;21.20;96.50
23405;DHT22;11875;49.356;2.718;2022-09-03T22:20:26;21.20;96.60
23405;DHT22;11875;49.356;2.718;2022-09-03T22:22:57;21.20;96.50
23405;DHT22;11875;49.356;2.718;2022-09-03T22:29:31;21.10;96.60
23405;DHT22;11875;49.356;2.718;2022-09-03T22:32:16;21.20;96.80